Tiempo atmosférico en la estación meteorológica de Fonfría, Teruel (1262 m.)

Fecha
DESCASC
Temp. máxima en grados centígrados (hora)
DESCASC
Temp. mínima en grados centígrados (hora)
DESCASC
Temp. media en grados centígrados
DESCASC
Racha de viento máxima en m/sg (hora)
DESCASC
Velocidad máxima media en intervalos de 10 minutos(hora)
DESCASC
Precipitaciones diarias en mm
DESCASC
Precipitaciones de 00:00 a 06:00 en mm
DESCASC
Precipitaciones de 06:00 a 12:00 en mm
DESCASC
Precipitaciones de 12:00 a 18:00 en mm
DESCASC
Precipitaciones de 18:00 a 24:00 en mm
DESCASC
23-11-2017 16.3 (13:10) 7.2 (02:40) 11.7 12.22 (12:50) 6.39 (02:30) 0 0 0 0 0
22-11-2017 15.8 (12:50) 5.5 (19:00) 10.7 10 (09:40) 6.39 (22:50) 0 0 0 0 0
21-11-2017 14.6 (14:20) 4.9 (23:40) 9.8 6.67 (12:50) 5 (23:20) 0 0 0 0 0
20-11-2017 14.3 (13:40) 4.7 (03:30) 9.5 6.67 (14:20) 4.72 (14:30) 0 0 0 0 0
19-11-2017 13.1 (15:20) 1.7 (00:00) 7.4 5.28 (01:50) 3.89 (17:10) 0 0 0 0 0
18-11-2017 12.3 (14:20) 1.4 (00:00) 6.9 7.22 (09:40) 5 (09:40) 0 0 0 0 0
17-11-2017 16.5 (14:20) 3.7 (00:00) 10.1 7.22 (00:40) 4.44 (00:50) 0 0 0 0 0
16-11-2017 13.5 (14:10) 3 (00:00) 8.3 7.78 (22:30) 5.56 (22:30) 0 0 0 0 0
15-11-2017 13.6 (14:50) -0.6 (-00:0) 6.5 6.11 (20:10) 4.17 (13:00) 0 0 0 0 0
14-11-2017 6.7 (15:00) -1.2 (-00:0) 2.7 16.39 (00:40) 11.94 (04:10) 0 0 0 0 0
13-11-2017 7 (00:20) -1.1 (-00:0) 2.9 23.61 (12:00) 17.22 (12:00) 0.2 0 0.2 0 0
12-11-2017 11.7 (14:50) 1.8 (00:00) 6.7 13.33 (23:59) 9.44 (15:30) 0 0 0 0 0
11-11-2017 11.1 (13:20) 3.6 (00:00) 7.4 17.22 (00:30) 11.94 (00:10) 0 0 0 0 0
10-11-2017 8.7 (13:40) 0.3 (00:00) 4.5 21.94 (22:50) 14.17 (21:10) 0 0 0 0 0
09-11-2017 6 (14:20) -1.5 (-00:0) 2.3 20 (13:10) 12.5 (13:10) 0 0 0 0 0
08-11-2017 6.7 (13:10) -0.5 (-00:0) 3.1 13.33 (03:30) 8.33 (20:20) 0 0 0 0 0
07-11-2017 8.9 (15:10) -1.8 (-00:0) 3.5 15.56 (13:20) 10 (00:10) 0 0 0 0 0
06-11-2017 4.9 (15:30) 0.3 (00:00) 2.6 18.33 (20:50) 13.06 (18:50) 1.2 0.8 0.4 0 0
05-11-2017 8.9 (14:30) 3.3 (00:00) 6.1 18.61 (06:10) 11.39 (07:00) 0.2 0 0.2 0 0
04-11-2017 13.1 (13:40) 7.2 (00:00) 10.2 9.72 (23:59) 6.67 (23:30) 3 0 0 1.4 1.6
03-11-2017 17.1 (13:50) 8.8 (00:00) 13 10.56 (10:30) 6.11 (07:40) 0 0 0 0 0
02-11-2017 18 (15:00) 7.6 (05:50) 12.8 11.94 (00:50) 9.44 (01:00) 0 0 0 0 0
01-11-2017 17.7 (14:50) 6.7 (00:00) 12.2 10 (23:59) 7.78 (08:00) 0 0 0 0 0
31-10-2017 16 (13:50) 1.6 (00:00) 8.8 8.89 (08:10) 7.5 (08:20) 0 0 0 0 0
30-10-2017 12.8 (14:20) 3 (00:00) 7.9 13.61 (12:30) 9.17 (11:40) 0 0 0 0 0
29-10-2017 14.2 (14:20) 3.3 (00:00) 8.7 12.78 (21:30) 8.33 (23:59) 0 0 0 0 0
28-10-2017 14.4 (15:30) 5.4 (00:00) 9.9 16.11 (04:50) 10.83 (05:30) 0 0 0 0 0
27-10-2017 19.5 (15:30) 9 (00:00) 14.3 18.89 (23:10) 13.33 (23:00) 0 0 0 0 0
26-10-2017 23.7 (15:30) 13 (00:00) 18.4 5.56 (04:00) 3.89 (09:50) 0 0 0 0 0
25-10-2017 25.3 (14:20) 11.9 (00:00) 18.6 8.06 (22:40) 6.94 (22:40) 0 0 0 0 0

Gráficas

Temp. máximas Temp. mínimas Temp. medias Precipitaciones Rachas de viento máximas Velocidades máximas media en intervalos de 10 minutos

Datos horarios

Fecha y hora oficial Temperatura (ºC) Velocidad del viento (km/h) Dirección del viento Racha (km/h) Dirección de racha Precipitación (mm) Presión (hPa) Tendencia (hPa) Humedad (%)
2017-11-23 23:00:00 8 14 Sudoeste 18 Sudoeste 0 -- -- 47
2017-11-23 22:00:00 7.8 14 Sudoeste 19 Sudoeste 0 -- -- 47
2017-11-23 21:00:00 9 17 Sudoeste 23 Sudoeste 0 -- -- 43
2017-11-23 20:00:00 10.2 14 Oeste 23 Sudoeste 0 -- -- 40
2017-11-23 19:00:00 11.1 11 Oeste 18 Sudoeste 0 -- -- 38
2017-11-23 18:00:00 11.8 10 Oeste 27 Oeste 0 -- -- 36
2017-11-23 17:00:00 13.3 9 Oeste 30 Oeste 0 -- -- 34
2017-11-23 16:00:00 15.1 13 Oeste 30 Oeste 0 -- -- 32
2017-11-23 15:00:00 15.3 11 Oeste 37 Noroeste 0 -- -- 32
2017-11-23 14:00:00 15.2 15 Oeste 42 Noroeste 0 -- -- 32
2017-11-23 13:00:00 15.5 23 Oeste 44 Oeste 0 -- -- 31
2017-11-23 12:00:00 15.7 19 Oeste 38 Oeste 0 -- -- 32
2017-11-23 11:00:00 12.8 13 Oeste 25 Sudoeste 0 -- -- 37
2017-11-23 10:00:00 11 8 Sudoeste 16 Sudoeste 0 -- -- 43
2017-11-23 09:00:00 9.4 7 Sudoeste 22 Sudoeste 0 -- -- 46
2017-11-23 08:00:00 8.2 18 Sudoeste 28 Sudoeste 0 -- -- 47
2017-11-23 07:00:00 8.6 17 Sudoeste 24 Sudoeste 0 -- -- 44
2017-11-23 06:00:00 8.3 16 Sudoeste 25 Sudoeste 0 -- -- 43
2017-11-23 05:00:00 8.1 18 Sudoeste 26 Sudoeste 0 -- -- 44
2017-11-23 04:00:00 8.2 20 Sudoeste 26 Sudoeste 0 -- -- 43
2017-11-23 03:00:00 8.3 21 Sudoeste 29 Sudoeste 0 -- -- 43
2017-11-23 02:00:00 7.7 19 Sudoeste 23 Sudoeste 0 -- -- 43
2017-11-23 01:00:00 7.8 18 Sudoeste 26 Sudoeste 0 -- -- 43
2017-11-23 00:00:00 7.8 22 Sudoeste 28 Sudoeste 0 -- -- 42
2017-11-22 23:00:00 7.1 23 Sudoeste 27 Sudoeste 0 -- -- 42
2017-11-22 22:00:00 7.5 18 Sudoeste 27 Oeste 0 -- -- 41
2017-11-22 21:00:00 9 14 Oeste 26 Sudoeste 0 -- -- 38
2017-11-22 20:00:00 7.9 16 Sudoeste 19 Sudoeste 0 -- -- 39
2017-11-22 19:00:00 5.5 13 Sudoeste 19 Sudoeste 0 -- -- 46
2017-11-22 18:00:00 8.7 14 Sudoeste 17 Sudoeste 0 -- -- 38
2017-11-22 17:00:00 12 7 Oeste 23 Oeste 0 -- -- 32
2017-11-22 16:00:00 14.8 13 Oeste 23 Oeste 0 -- -- 27
2017-11-22 15:00:00 15.1 9 Oeste 27 Oeste 0 -- -- 30
2017-11-22 14:00:00 15.4 11 Noroeste 28 Oeste 0 -- -- 28
2017-11-22 13:00:00 15.6 16 Oeste 30 Sudoeste 0 -- -- 28
2017-11-22 12:00:00 15.2 17 Sudoeste 27 Sudoeste 0 -- -- 31
2017-11-22 11:00:00 13 18 Sudoeste 26 Sudoeste 0 -- -- 36
2017-11-22 10:00:00 11 17 Sudoeste 36 Sudoeste 0 -- -- 40
2017-11-22 09:00:00 8.4 6 Noroeste 19 Noroeste 0 -- -- 46
2017-11-22 08:00:00 6.2 9 Noroeste 20 Noroeste 0 -- -- 51
2017-11-22 07:00:00 6 3 Noroeste 19 Sudoeste 0 -- -- 48
2017-11-22 06:00:00 6.6 12 Oeste 32 Sudoeste 0 -- -- 43
2017-11-22 05:00:00 6.6 17 Sudoeste 26 Oeste 0 -- -- 42
2017-11-22 04:00:00 6.6 6 Oeste 18 Sudoeste 0 -- -- 41
2017-11-22 03:00:00 6.9 0 Calma 7 Oeste 0 -- -- 44
2017-11-22 02:00:00 6.7 4 Oeste 11 Sudoeste 0 -- -- 46
2017-11-22 01:00:00 7.1 4 Oeste 9 Noroeste 0 -- -- 39
2017-11-22 00:00:00 5.9 4 Sudoeste 20 Sudoeste 0 -- -- 40
2017-11-21 23:00:00 6.1 17 Sudoeste 18 Sudoeste 0 -- -- 39
2017-11-21 22:00:00 6.8 8 Sudoeste 12 Sudoeste 0 -- -- 37
2017-11-21 21:00:00 6.2 5 Sudoeste 18 Sudoeste 0 -- -- 37
2017-11-21 20:00:00 6.6 14 Sudoeste 18 Sudoeste 0 -- -- 37
2017-11-21 19:00:00 7.5 6 Sudoeste 10 Sur 0 -- -- 35
2017-11-21 18:00:00 9.6 4 Sudoeste 9 Oeste 0 -- -- 31
2017-11-21 17:00:00 11.2 6 Sudoeste 10 Sudoeste 0 -- -- 27
2017-11-21 16:00:00 14.3 5 Sudoeste 14 Noroeste 0 -- -- 25
2017-11-21 15:00:00 14.3 10 Noroeste 18 Noroeste 0 -- -- 24
2017-11-21 14:00:00 14.4 14 Noroeste 22 Noroeste 0 -- -- 25
2017-11-21 13:00:00 14.4 14 Noroeste 24 Noroeste 0 -- -- 26
2017-11-21 12:00:00 13.2 13 Norte 20 Noroeste 0 -- -- 28
2017-11-21 11:00:00 11.8 5 Noroeste 10 Noroeste 0 -- -- 35
2017-11-21 10:00:00 9.6 4 Noroeste 9 Noroeste 0 -- -- 40
2017-11-21 09:00:00 7.9 0 Calma 14 Oeste 0 -- -- 44
2017-11-21 08:00:00 6.2 0 Calma 9 Oeste 0 -- -- 46
2017-11-21 07:00:00 5.6 6 Sudoeste 10 Sudoeste 0 -- -- 48
2017-11-21 06:00:00 6.5 0 Calma 8 Sur 0 -- -- 48
2017-11-21 05:00:00 5.5 3 Sur 12 Oeste 0 -- -- 50
2017-11-21 04:00:00 7 5 Oeste 18 Oeste 0 -- -- 46
2017-11-21 03:00:00 7.1 11 Oeste 16 Oeste 0 -- -- 45
2017-11-21 02:00:00 7.6 4 Sudoeste 9 Sudoeste 0 -- -- 40
2017-11-21 01:00:00 6.8 3 Sudeste 19 Sudoeste 0 -- -- 40
2017-11-21 00:00:00 5.6 15 Sudoeste 20 Sudoeste 0 -- -- 40
2017-11-20 23:00:00 7.7 15 Sudoeste 18 Sudoeste 0 -- -- 35
2017-11-20 22:00:00 7.4 6 Sudoeste 9 Sudoeste 0 -- -- 37
2017-11-20 21:00:00 8.1 2 Sur 12 Oeste 0 -- -- 34
2017-11-20 20:00:00 9 7 Oeste 17 Oeste 0 -- -- 30
2017-11-20 19:00:00 8.7 0 Calma 13 Sudoeste 0 -- -- 32
2017-11-20 18:00:00 8.1 10 Oeste 12 Oeste 0 -- -- 35
2017-11-20 17:00:00 11.6 2 Oeste 12 Norte 0 -- -- 27
2017-11-20 16:00:00 13.3 10 Noroeste 18 Noroeste 0 -- -- 24
2017-11-20 15:00:00 13.6 14 Noroeste 24 Noroeste 0 -- -- 25
2017-11-20 14:00:00 14.1 15 Noroeste 22 Noroeste 0 -- -- 24
2017-11-20 13:00:00 13.7 14 Noroeste 21 Noroeste 0 -- -- 23
2017-11-20 12:00:00 12.6 14 Noroeste 19 Noroeste 0 -- -- 27
2017-11-20 11:00:00 11 10 Norte 14 Noroeste 0 -- -- 30
2017-11-20 10:00:00 8.9 4 Norte 8 Noroeste 0 -- -- 35
2017-11-20 09:00:00 6.8 3 Oeste 9 Noroeste 0 -- -- 39
2017-11-20 08:00:00 5.2 4 Oeste 11 Oeste 0 -- -- 41
2017-11-20 07:00:00 4.8 3 Sudoeste 8 Oeste 0 -- -- 40
2017-11-20 06:00:00 5 5 Oeste 8 Oeste 0 -- -- 42
2017-11-20 05:00:00 5 4 Noroeste 6 Oeste 0 -- -- 41
2017-11-20 04:00:00 5 3 Oeste 8 Noroeste 0 -- -- 43
2017-11-20 03:00:00 5.2 5 Noroeste 13 Oeste 0 -- -- 40
2017-11-20 02:00:00 5.5 8 Oeste 12 Oeste 0 -- -- 38
2017-11-20 01:00:00 6 0 Calma 9 Sudoeste 0 -- -- 35
2017-11-20 00:00:00 6.3 4 Oeste 8 Sudoeste 0 -- -- 33
2017-11-19 23:00:00 6.9 3 Oeste 8 Oeste 0 -- -- 33
2017-11-19 22:00:00 6 2 Sudeste 10 Oeste 0 -- -- 35
2017-11-19 21:00:00 6.2 4 Noroeste 12 Oeste 0 -- -- 36
2017-11-19 20:00:00 6.5 5 Noroeste 12 Oeste 0 -- -- 32
2017-11-19 19:00:00 6.6 8 Oeste 14 Oeste 0 -- -- 28
2017-11-19 18:00:00 7.1 3 Sudeste 17 Noroeste 0 -- -- 36
2017-11-19 17:00:00 9.9 10 Oeste 16 Oeste 0 -- -- 30
2017-11-19 16:00:00 12.7 8 Noroeste 19 Norte 0 -- -- 26
2017-11-19 15:00:00 12.9 9 Noroeste 15 Noroeste 0 -- -- 25
2017-11-19 14:00:00 12.3 11 Noroeste 18 Noroeste 0 -- -- 28
2017-11-19 13:00:00 11.9 9 Noroeste 16 Noroeste 0 -- -- 34
2017-11-19 12:00:00 10.5 9 Noroeste 14 Noroeste 0 -- -- 39
2017-11-19 11:00:00 8.8 6 Noroeste 10 Noroeste 0 -- -- 51
2017-11-19 10:00:00 7.2 5 Noroeste 10 Oeste 0 -- -- 59
2017-11-19 09:00:00 4.4 9 Oeste 11 Oeste 0 -- -- 67
2017-11-19 08:00:00 2.1 8 Oeste 10 Oeste 0 -- -- 74
2017-11-19 07:00:00 2.2 4 Sudoeste 9 Sudoeste 0 -- -- 70
2017-11-19 06:00:00 2.8 3 Oeste 7 Sudoeste 0 -- -- 75
2017-11-19 05:00:00 3.1 3 Sudoeste 7 Oeste 0 -- -- 71
2017-11-19 04:00:00 4 4 Noroeste 7 Sudoeste 0 -- -- 70
2017-11-19 03:00:00 3.6 4 Oeste 9 Noroeste 0 -- -- 75
2017-11-19 02:00:00 3.5 6 Sudoeste 19 Sudoeste 0 -- -- 80
2017-11-19 01:00:00 2.4 9 Sur 14 Sur 0 -- -- 85
2017-11-19 00:00:00 1.7 6 Sur 11 Sudoeste 0 -- -- 84
2017-11-18 23:00:00 2.2 5 Oeste 8 Oeste 0 -- -- 85
2017-11-18 22:00:00 2.8 5 Oeste 7 Oeste 0 -- -- 86
2017-11-18 21:00:00 3.4 5 Oeste 11 Oeste 0 -- -- 87
2017-11-18 20:00:00 3.8 5 Oeste 8 Oeste 0 -- -- 83
2017-11-18 19:00:00 4.4 6 Oeste 9 Oeste 0 -- -- 75
2017-11-18 18:00:00 6.3 0 Calma 8 Oeste 0 -- -- 70
2017-11-18 17:00:00 8.5 4 Oeste 13 Noroeste 0 -- -- 59
2017-11-18 16:00:00 10.8 10 Noroeste 18 Noroeste 0 -- -- 47
2017-11-18 15:00:00 11.6 13 Noroeste 25 Noroeste 0 -- -- 41
2017-11-18 14:00:00 12.1 13 Noroeste 21 Noroeste 0 -- -- 39
2017-11-18 13:00:00 11.5 8 Noroeste 19 Norte 0 -- -- 44
2017-11-18 12:00:00 10.6 11 Noroeste 21 Noroeste 0 -- -- 47
2017-11-18 11:00:00 9.4 13 Noroeste 23 Noroeste 0 -- -- 50
2017-11-18 10:00:00 8.4 15 Noroeste 26 Noroeste 0 -- -- 52
2017-11-18 09:00:00 6.4 6 Norte 14 Noroeste 0 -- -- 58
2017-11-18 08:00:00 4.2 8 Noroeste 18 Noroeste 0 -- -- 63
2017-11-18 07:00:00 3.9 13 Oeste 17 Oeste 0 -- -- 66
2017-11-18 06:00:00 3.9 6 Oeste 9 Oeste 0 -- -- 64
2017-11-18 05:00:00 5 5 Oeste 8 Oeste 0 -- -- 61
2017-11-18 04:00:00 5.3 4 Oeste 7 Noroeste 0 -- -- 59
2017-11-18 03:00:00 5.1 2 Oeste 6 Oeste 0 -- -- 60
2017-11-18 02:00:00 5.2 5 Noroeste 13 Oeste 0 -- -- 60
2017-11-18 01:00:00 5.4 8 Sur 14 Sur 0 -- -- 58
2017-11-18 00:00:00 5.5 6 Sudoeste 12 Sudoeste 0 -- -- 57
2017-11-17 23:00:00 6.7 0 Calma 4 Oeste 0 -- -- 55
2017-11-17 22:00:00 6.3 4 Oeste 7 Oeste 0 -- -- 57
2017-11-17 21:00:00 6.6 7 Oeste 12 Oeste 0 -- -- 55
2017-11-17 20:00:00 7.8 4 Sudoeste 7 Sudoeste 0 -- -- 49
2017-11-17 19:00:00 7.7 3 Sudeste 5 Sudoeste 0 -- -- 49
2017-11-17 18:00:00 9.9 2 Noroeste 13 Noroeste 0 -- -- 43
2017-11-17 17:00:00 11.8 6 Oeste 11 Noroeste 0 -- -- 38
2017-11-17 16:00:00 14.6 9 Noroeste 12 Noroeste 0 -- -- 34
2017-11-17 15:00:00 16.5 3 Este 9 Noroeste 0 -- -- 30
2017-11-17 14:00:00 16.1 2 Noroeste 9 Nordeste 0 -- -- 30
2017-11-17 13:00:00 15.4 3 Este 9 Noroeste 0 -- -- 33
2017-11-17 12:00:00 13.4 4 Noroeste 14 Noroeste 0 -- -- 36
2017-11-17 11:00:00 12 9 Noroeste 15 Noroeste 0 -- -- 38
2017-11-17 10:00:00 10.3 10 Noroeste 18 Noroeste 0 -- -- 43
2017-11-17 09:00:00 8 12 Noroeste 21 Noroeste 0 -- -- 49
2017-11-17 08:00:00 5.6 16 Oeste 22 Oeste 0 -- -- 56
2017-11-17 07:00:00 4.6 12 Oeste 18 Noroeste 0 -- -- 59
2017-11-17 06:00:00 4.7 13 Oeste 19 Noroeste 0 -- -- 59
2017-11-17 05:00:00 4 3 Norte 9 Oeste 0 -- -- 61
2017-11-17 04:00:00 4.5 0 Calma 10 Oeste 0 -- -- 60
2017-11-17 03:00:00 5.6 7 Noroeste 19 Noroeste 0 -- -- 55
2017-11-17 02:00:00 6.1 15 Noroeste 20 Oeste 0 -- -- 55
2017-11-17 01:00:00 6.9 14 Noroeste 26 Noroeste 0 -- -- 52
2017-11-17 00:00:00 6.3 8 Oeste 27 Noroeste 0 -- -- 53
2017-11-16 23:00:00 7.1 18 Noroeste 28 Noroeste 0 -- -- 51
2017-11-16 22:00:00 7 15 Noroeste 21 Noroeste 0 -- -- 52
2017-11-16 21:00:00 6.6 6 Noroeste 14 Noroeste 0 -- -- 52
2017-11-16 20:00:00 6.7 7 Oeste 23 Oeste 0 -- -- 50
2017-11-16 19:00:00 7.4 12 Noroeste 22 Noroeste 0 -- -- 46
2017-11-16 18:00:00 7.7 16 Noroeste 23 Noroeste 0 -- -- 45
2017-11-16 17:00:00 9.5 13 Noroeste 18 Noroeste 0 -- -- 40
2017-11-16 16:00:00 12.4 8 Noroeste 15 Oeste 0 -- -- 37
2017-11-16 15:00:00 13.4 8 Oeste 15 Oeste 0 -- -- 35
2017-11-16 14:00:00 13.3 8 Noroeste 16 Noroeste 0 -- -- 34
2017-11-16 13:00:00 12.8 7 Noroeste 16 Oeste -- -- -- 35
2017-11-16 12:00:00 12 7 Noroeste 16 Noroeste 0 -- -- 36
2017-11-16 11:00:00 10.7 10 Noroeste 18 Noroeste 0 -- -- 39
2017-11-16 10:00:00 9.2 8 Noroeste 13 Noroeste 0 -- -- 47
2017-11-16 09:00:00 6.3 3 Noroeste 8 Noroeste 0 -- -- 53
2017-11-16 08:00:00 3.2 4 Noroeste 12 Noroeste 0 -- -- 62
2017-11-16 07:00:00 3.5 8 Noroeste 9 Noroeste 0 -- -- 60
2017-11-16 06:00:00 3 4 Noroeste 10 Oeste 0 -- -- 61
2017-11-16 05:00:00 3.6 6 Oeste 9 Noroeste 0 -- -- 60
2017-11-16 04:00:00 3.3 5 Oeste 13 Oeste 0 -- -- 62
2017-11-16 03:00:00 3.8 0 Calma 14 Oeste 0 -- -- 64
2017-11-16 02:00:00 4.4 9 Oeste 12 Noroeste 0 -- -- 62
2017-11-16 01:00:00 5.1 4 Noroeste 11 Oeste 0 -- -- 57
2017-11-16 00:00:00 5.1 8 Noroeste 10 Oeste 0 -- -- 56
2017-11-15 23:00:00 5 3 Este 12 Noroeste 0 -- -- 53
2017-11-15 22:00:00 6.2 7 Noroeste 15 Oeste 0 -- -- 47
2017-11-15 21:00:00 7.7 10 Noroeste 22 Noroeste 0 -- -- 42
2017-11-15 20:00:00 6.9 8 Noroeste 18 Oeste 0 -- -- 42
2017-11-15 19:00:00 7 8 Noroeste 17 Noroeste 0 -- -- 41
2017-11-15 18:00:00 8.4 8 Oeste 14 Noroeste 0 -- -- 38
2017-11-15 17:00:00 11 6 Oeste 17 Noroeste 0 -- -- 34
2017-11-15 16:00:00 13.1 13 Noroeste 19 Noroeste 0 -- -- 29
2017-11-15 15:00:00 13.6 14 Noroeste 19 Noroeste 0 -- -- 27
2017-11-15 14:00:00 13.3 12 Noroeste 19 Noroeste 0 -- -- 28
2017-11-15 13:00:00 12.3 15 Noroeste 21 Noroeste 0 -- -- 30
2017-11-15 12:00:00 11.2 13 Noroeste 19 Noroeste 0 -- -- 31
2017-11-15 11:00:00 8.9 13 Noroeste 18 Noroeste 0 -- -- 36
2017-11-15 10:00:00 6.5 9 Noroeste 15 Noroeste 0 -- -- 43
2017-11-15 09:00:00 3.9 10 Noroeste 16 Noroeste 0 -- -- 45
2017-11-15 08:00:00 2.2 10 Noroeste 15 Oeste 0 -- -- 49
2017-11-15 07:00:00 2.1 6 Oeste 12 Oeste 0 -- -- 49
2017-11-15 06:00:00 2.1 6 Noroeste 14 Noroeste 0 -- -- 51
2017-11-15 05:00:00 2 7 Oeste 11 Oeste 0 -- -- 51
2017-11-15 04:00:00 1.1 5 Noroeste 9 Oeste 0 -- -- 55
2017-11-15 03:00:00 0.9 4 Oeste 12 Sudoeste 0 -- -- 56
2017-11-15 02:00:00 0.7 2 Oeste 15 Sudoeste 0 -- -- 56
2017-11-15 01:00:00 0.1 12 Sudoeste 19 Sudoeste 0 -- -- 61
2017-11-15 00:00:00 -0.6 10 Sudoeste 17 Sudoeste 0 -- -- 63
2017-11-14 23:00:00 0.4 3 Sudoeste 12 Sudoeste 0 -- -- 57
2017-11-14 22:00:00 0.2 6 Oeste 9 Oeste 0 -- -- 59
2017-11-14 21:00:00 0.5 8 Oeste 22 Noroeste 0 -- -- 60
2017-11-14 20:00:00 1.6 14 Noroeste 26 Noroeste 0 -- -- 59
2017-11-14 19:00:00 1.6 17 Noroeste 27 Noroeste 0 -- -- 60
2017-11-14 18:00:00 2.3 12 Noroeste 22 Noroeste 0 -- -- 55
2017-11-14 17:00:00 3.8 14 Noroeste 27 Noroeste 0 -- -- 49
2017-11-14 16:00:00 5.7 19 Noroeste 30 Noroeste 0 -- -- 46
2017-11-14 15:00:00 6.7 18 Norte 30 Noroeste 0 -- -- 43
2017-11-14 14:00:00 6.1 22 Noroeste 30 Norte 0 -- -- 43
2017-11-14 13:00:00 5.6 22 Noroeste 35 Norte 0 -- -- 42
2017-11-14 12:00:00 4.9 23 Noroeste 36 Noroeste 0 -- -- 43
2017-11-14 11:00:00 4.1 26 Noroeste 36 Noroeste 0 -- -- 43
2017-11-14 10:00:00 2.6 20 Noroeste 31 Noroeste 0 -- -- 45
2017-11-14 09:00:00 1.3 19 Noroeste 37 Noroeste 0 -- -- 48
2017-11-14 08:00:00 -0.5 24 Noroeste 40 Oeste 0 -- -- 55
2017-11-14 07:00:00 -1.2 14 Noroeste 46 Noroeste 0 -- -- 56
2017-11-14 06:00:00 -0.6 31 Noroeste 46 Noroeste 0 -- -- 56
2017-11-14 05:00:00 -1 26 Noroeste 58 Noroeste 0 -- -- 60
2017-11-14 04:00:00 -0.6 41 Noroeste 58 Noroeste 0 -- -- 60
2017-11-14 03:00:00 -1 35 Noroeste 54 Noroeste 0 -- -- 67
2017-11-14 02:00:00 -1 34 Noroeste 51 Noroeste 0 -- -- 72
2017-11-14 01:00:00 -0.9 42 Noroeste 59 Noroeste 0 -- -- 75
2017-11-14 00:00:00 -1 27 Noroeste 47 Noroeste 0 -- -- 75
2017-11-13 23:00:00 -0.8 35 Noroeste 55 Noroeste 0 -- -- 75
2017-11-13 22:00:00 -0.8 34 Noroeste 50 Oeste 0 -- -- 77
2017-11-13 21:00:00 -0.9 17 Noroeste 40 Noroeste 0 -- -- 78
2017-11-13 20:00:00 -1.1 20 Noroeste 47 Noroeste 0 -- -- 76
2017-11-13 19:00:00 -0.3 27 Noroeste 57 Noroeste 0 -- -- 70
2017-11-13 18:00:00 0.8 33 Noroeste 62 Norte 0 -- -- 62
2017-11-13 17:00:00 1.7 40 Noroeste 66 Noroeste 0 -- -- 61
2017-11-13 16:00:00 2.9 48 Norte 64 Norte 0 -- -- 51
2017-11-13 15:00:00 3.7 33 Norte 61 Norte 0 -- -- 53
2017-11-13 14:00:00 4.1 44 Noroeste 62 Noroeste 0 -- -- 54
2017-11-13 13:00:00 3.9 43 Noroeste 79 Noroeste 0 -- -- 56
2017-11-13 12:00:00 2.5 62 Norte 85 Noroeste 0 -- -- 74
2017-11-13 11:00:00 1.3 51 Noroeste 77 Noroeste 0 -- -- 92
2017-11-13 10:00:00 0.5 59 Norte 79 Noroeste 0 -- -- 98
2017-11-13 09:00:00 1.1 39 Norte 53 Noroeste 0.2 -- -- 96
2017-11-13 08:00:00 1.9 28 Norte 57 Noroeste 0 -- -- 93
2017-11-13 07:00:00 3.1 29 Noroeste 55 Noroeste 0 -- -- 84
2017-11-13 06:00:00 3.3 40 Noroeste 59 Noroeste 0 -- -- 84
2017-11-13 05:00:00 3.9 43 Norte 61 Norte 0 -- -- 84
2017-11-13 04:00:00 4.6 39 Norte 58 Noroeste 0 -- -- 91
2017-11-13 03:00:00 5.6 27 Noroeste 43 Noroeste 0 -- -- 88
2017-11-13 02:00:00 6.2 18 Noroeste 41 Noroeste 0 -- -- 82
2017-11-13 01:00:00 6.6 21 Noroeste 41 Noroeste 0 -- -- 82
2017-11-13 00:00:00 6.8 28 Noroeste 48 Noroeste 0 -- -- 82
2017-11-12 23:00:00 6.9 15 Noroeste 36 Noroeste 0 -- -- 80
2017-11-12 22:00:00 7.1 17 Noroeste 29 Noroeste 0 -- -- 79
2017-11-12 21:00:00 7.4 15 Noroeste 29 Noroeste 0 -- -- 77
2017-11-12 20:00:00 7.4 15 Noroeste 24 Noroeste 0 -- -- 80
2017-11-12 19:00:00 5.7 15 Noroeste 23 Noroeste 0 -- -- 83
2017-11-12 18:00:00 7 14 Noroeste 29 Norte 0 -- -- 80
2017-11-12 17:00:00 9 22 Norte 37 Noroeste 0 -- -- 66
2017-11-12 16:00:00 10.2 31 Noroeste 45 Noroeste 0 -- -- 58
2017-11-12 15:00:00 11.4 22 Noroeste 33 Noroeste 0 -- -- 52
2017-11-12 14:00:00 10.6 15 Noroeste 27 Noroeste 0 -- -- 61
2017-11-12 13:00:00 9.6 17 Noroeste 27 Noroeste 0 -- -- 69
2017-11-12 12:00:00 7.5 10 Noroeste 26 Noroeste 0 -- -- 81
2017-11-12 11:00:00 5.9 19 Noroeste 30 Oeste 0 -- -- 93
2017-11-12 10:00:00 4.6 22 Noroeste 33 Noroeste 0 -- -- 100
2017-11-12 09:00:00 2.8 22 Noroeste 30 Noroeste 0 -- -- 99
2017-11-12 08:00:00 2.7 14 Noroeste 30 Noroeste 0 -- -- 98
2017-11-12 07:00:00 2.6 18 Noroeste 27 Noroeste 0 -- -- 98
2017-11-12 06:00:00 2.5 9 Norte 28 Noroeste 0 -- -- 97
2017-11-12 05:00:00 2.1 18 Noroeste 29 Noroeste 0 -- -- 97
2017-11-12 04:00:00 2.2 16 Noroeste 36 Oeste 0 -- -- 95
2017-11-12 03:00:00 2.3 9 Noroeste 23 Noroeste 0 -- -- 97
2017-11-12 02:00:00 2.1 4 Noroeste 18 Noroeste 0 -- -- 96
2017-11-12 01:00:00 3.3 13 Noroeste 32 Noroeste 0 -- -- 94
2017-11-12 00:00:00 3.7 15 Noroeste 26 Norte 0 -- -- 93
2017-11-11 23:00:00 4.4 22 Noroeste 31 Noroeste 0 -- -- 90
2017-11-11 22:00:00 4.5 14 Noroeste 26 Noroeste 0 -- -- 90
2017-11-11 21:00:00 4.3 6 Sudoeste 17 Sudoeste 0 -- -- 87
2017-11-11 20:00:00 4.9 6 Oeste 19 Noroeste 0 -- -- 86
2017-11-11 19:00:00 5.6 14 Noroeste 37 Noroeste 0 -- -- 85
2017-11-11 18:00:00 6.8 23 Norte 37 Noroeste 0 -- -- 82
2017-11-11 17:00:00 8 28 Norte 41 Norte 0 -- -- 78
2017-11-11 16:00:00 9.1 30 Norte 41 Noroeste 0 -- -- 73
2017-11-11 15:00:00 10.7 32 Norte 45 Norte 0 -- -- 66
2017-11-11 14:00:00 10.9 32 Noroeste 41 Noroeste 0 -- -- 66
2017-11-11 13:00:00 9.5 23 Norte 42 Norte 0 -- -- 73
2017-11-11 12:00:00 9.7 32 Norte 52 Norte 0 -- -- 74
2017-11-11 11:00:00 7.6 33 Noroeste 49 Norte 0 -- -- 86
2017-11-11 10:00:00 6.7 28 Norte 54 Noroeste 0 -- -- 90
2017-11-11 09:00:00 5.7 22 Noroeste 52 Noroeste 0 -- -- 93
2017-11-11 08:00:00 5.4 29 Noroeste 41 Noroeste 0 -- -- 91
2017-11-11 07:00:00 5.6 21 Noroeste 39 Norte 0 -- -- 88
2017-11-11 06:00:00 5.7 32 Norte 48 Noroeste 0 -- -- 89
2017-11-11 05:00:00 5.9 23 Norte 49 Noroeste 0 -- -- 87
2017-11-11 04:00:00 5.9 34 Noroeste 58 Noroeste 0 -- -- 85
2017-11-11 03:00:00 5.9 39 Noroeste 55 Norte 0 -- -- 84
2017-11-11 02:00:00 5.8 39 Norte 58 Noroeste 0 -- -- 87
2017-11-11 01:00:00 5.7 32 Noroeste 62 Norte 0 -- -- 89
2017-11-11 00:00:00 5.7 41 Noroeste 71 Noroeste 0 -- -- 91
2017-11-10 23:00:00 5.7 40 Norte 79 Noroeste 0 -- -- 93
2017-11-10 22:00:00 6.1 41 Norte 69 Noroeste 0 -- -- 92
2017-11-10 21:00:00 6.2 49 Norte 69 Noroeste 0 -- -- 95
2017-11-10 20:00:00 6.7 42 Noroeste 70 Norte 0 -- -- 90
2017-11-10 19:00:00 6.9 30 Noroeste 59 Noroeste 0 -- -- 88
2017-11-10 18:00:00 7.2 22 Noroeste 48 Noroeste 0 -- -- 85
2017-11-10 17:00:00 7.7 29 Norte 49 Noroeste 0 -- -- 80
2017-11-10 16:00:00 8.1 33 Noroeste 51 Noroeste 0 -- -- 76
2017-11-10 15:00:00 8 35 Norte 55 Noroeste 0 -- -- 74
2017-11-10 14:00:00 8.4 34 Norte 56 Norte 0 -- -- 72
2017-11-10 13:00:00 7.8 31 Norte 50 Norte 0 -- -- 76
2017-11-10 12:00:00 6.7 31 Norte 51 Norte 0 -- -- 82
2017-11-10 11:00:00 5.8 35 Norte 50 Norte 0 -- -- 86
2017-11-10 10:00:00 4 21 Norte 33 Norte 0 -- -- 89
2017-11-10 09:00:00 2.8 19 Noroeste 34 Noroeste 0 -- -- 81
2017-11-10 08:00:00 0.6 18 Noroeste 38 Noroeste 0 -- -- 80
2017-11-10 07:00:00 1.1 34 Noroeste 49 Noroeste 0 -- -- 70
2017-11-10 06:00:00 0.5 26 Noroeste 39 Noroeste 0 -- -- 81
2017-11-10 05:00:00 1 22 Norte 45 Noroeste 0 -- -- 86
2017-11-10 04:00:00 1.5 27 Noroeste 44 Noroeste 0 -- -- 88
2017-11-10 03:00:00 1.4 28 Noroeste 43 Noroeste 0 -- -- 88
2017-11-10 02:00:00 1.3 22 Noroeste 44 Norte 0 -- -- 88
2017-11-10 01:00:00 1.6 27 Noroeste 41 Noroeste 0 -- -- 87
2017-11-10 00:00:00 1.5 30 Noroeste 45 Noroeste 0 -- -- 86
2017-11-09 23:00:00 1.7 34 Noroeste 55 Norte 0 -- -- 85
2017-11-09 22:00:00 2 29 Norte 56 Noroeste 0 -- -- 88
2017-11-09 21:00:00 2 34 Noroeste 54 Norte 0 -- -- 91
2017-11-09 20:00:00 2.5 34 Norte 58 Norte 0 -- -- 86
2017-11-09 19:00:00 2.7 37 Norte 55 Noroeste 0 -- -- 83
2017-11-09 18:00:00 3.2 20 Noroeste 40 Norte 0 -- -- 80
2017-11-09 17:00:00 3.8 21 Norte 52 Noroeste 0 -- -- 78
2017-11-09 16:00:00 4.6 32 Noroeste 49 Noroeste 0 -- -- 72
2017-11-09 15:00:00 5.4 30 Norte 47 Noroeste 0 -- -- 68
2017-11-09 14:00:00 5.4 38 Norte 72 Noroeste 0 -- -- 69
2017-11-09 13:00:00 4.2 43 Norte 63 Norte 0 -- -- 74
2017-11-09 12:00:00 4.3 39 Noroeste 53 Noroeste 0 -- -- 78
2017-11-09 11:00:00 3 33 Noroeste 58 Noroeste 0 -- -- 84
2017-11-09 10:00:00 1.3 25 Noroeste 35 Noroeste 0 -- -- 92
2017-11-09 09:00:00 -0.1 24 Noroeste 41 Noroeste 0 -- -- 94
2017-11-09 08:00:00 -0.1 29 Noroeste 47 Noroeste 0 -- -- 94
2017-11-09 07:00:00 -0.4 32 Noroeste 47 Noroeste 0 -- -- 95
2017-11-09 06:00:00 -0.5 22 Noroeste 38 Noroeste 0 -- -- 92
2017-11-09 05:00:00 -0.8 18 Noroeste 41 Noroeste 0 -- -- 92
2017-11-09 04:00:00 -0.9 19 Noroeste 38 Noroeste 0 -- -- 93
2017-11-09 03:00:00 -1.5 18 Noroeste 30 Noroeste 0 -- -- 93
2017-11-09 02:00:00 -1.2 22 Noroeste 33 Noroeste 0 -- -- 92
2017-11-09 01:00:00 -1 14 Noroeste 28 Noroeste 0 -- -- 93
2017-11-09 00:00:00 -0.5 17 Noroeste 31 Noroeste 0 -- -- 91
2017-11-08 23:00:00 0 20 Noroeste 36 Noroeste 0 -- -- 92
2017-11-08 22:00:00 0 22 Noroeste 41 Noroeste 0 -- -- 92
2017-11-08 21:00:00 0.2 16 Noroeste 41 Noroeste 0 -- -- 91
2017-11-08 20:00:00 1.3 22 Noroeste 34 Noroeste 0 -- -- 93
2017-11-08 19:00:00 1 19 Norte 32 Noroeste 0 -- -- 92
2017-11-08 18:00:00 2 19 Norte 32 Noroeste 0 -- -- 90
2017-11-08 17:00:00 3.7 17 Norte 28 Norte 0 -- -- 76
2017-11-08 16:00:00 4.6 21 Norte 30 Norte 0 -- -- 74
2017-11-08 15:00:00 5.6 20 Norte 32 Norte 0 -- -- 67
2017-11-08 14:00:00 6.1 18 Noroeste 31 Noroeste 0 -- -- 66
2017-11-08 13:00:00 6 19 Noroeste 39 Noroeste 0 -- -- 66
2017-11-08 12:00:00 5.3 24 Norte 39 Norte 0 -- -- 68
2017-11-08 11:00:00 4.8 26 Norte 39 Noroeste 0 -- -- 71
2017-11-08 10:00:00 3.9 18 Norte 31 Noroeste 0 -- -- 78
2017-11-08 09:00:00 4.2 23 Norte 33 Noroeste 0 -- -- 78
2017-11-08 08:00:00 3.2 15 Noroeste 31 Norte 0 -- -- 84
2017-11-08 07:00:00 2.6 15 Norte 35 Noroeste 0 -- -- 86
2017-11-08 06:00:00 2.8 15 Noroeste 32 Noroeste 0 -- -- 88
2017-11-08 05:00:00 3.6 23 Norte 37 Norte 0 -- -- 90
2017-11-08 04:00:00 4.1 23 Norte 48 Norte 0 -- -- 89
2017-11-08 03:00:00 4.4 15 Noroeste 26 Noroeste 0 -- -- 87
2017-11-08 02:00:00 3.8 19 Noroeste 32 Noroeste 0 -- -- 89
2017-11-08 01:00:00 3.2 18 Noroeste 26 Noroeste 0 -- -- 90
2017-11-08 00:00:00 1.3 5 Norte 10 Norte 0 -- -- 91
2017-11-07 23:00:00 1.5 2 Norte 6 Noroeste 0 -- -- 85
2017-11-07 22:00:00 2.4 3 Norte 12 Noroeste 0 -- -- 82
2017-11-07 21:00:00 3.5 4 Oeste 9 Noroeste 0 -- -- 74
2017-11-07 20:00:00 4.3 5 Oeste 16 Oeste 0 -- -- 74
2017-11-07 19:00:00 5.2 10 Oeste 16 Noroeste 0 -- -- 72
2017-11-07 18:00:00 6.2 11 Oeste 24 Noroeste 0 -- -- 65
2017-11-07 17:00:00 7.3 12 Noroeste 29 Noroeste 0 -- -- 56
2017-11-07 16:00:00 8.5 21 Noroeste 39 Noroeste 0 -- -- 46
2017-11-07 15:00:00 8.6 25 Noroeste 37 Noroeste 0 -- -- 43
2017-11-07 14:00:00 8.2 27 Noroeste 56 Noroeste 0 -- -- 42
2017-11-07 13:00:00 6.9 30 Noroeste 44 Noroeste 0 -- -- 44
2017-11-07 12:00:00 6.1 22 Noroeste 33 Noroeste 0 -- -- 52
2017-11-07 11:00:00 3.7 26 Noroeste 35 Noroeste 0 -- -- 69
2017-11-07 10:00:00 2.8 13 Noroeste 30 Noroeste 0 -- -- 72
2017-11-07 09:00:00 1 16 Noroeste 26 Noroeste 0 -- -- 87
2017-11-07 08:00:00 -1.2 8 Oeste 22 Norte 0 -- -- 96
2017-11-07 07:00:00 -1.6 9 Noroeste 36 Noroeste 0 -- -- 93
2017-11-07 06:00:00 -1.1 18 Oeste 42 Noroeste 0 -- -- 91
2017-11-07 05:00:00 -0.4 31 Noroeste 44 Oeste 0 -- -- 81
2017-11-07 04:00:00 -0.5 23 Oeste 44 Noroeste 0 -- -- 80
2017-11-07 03:00:00 0.1 19 Noroeste 38 Noroeste 0 -- -- 68
2017-11-07 02:00:00 0.2 23 Noroeste 51 Noroeste 0 -- -- 89
2017-11-07 01:00:00 0 23 Noroeste 49 Noroeste 0 -- -- 91
2017-11-07 00:00:00 0.3 36 Noroeste 49 Noroeste 0 -- -- 94
2017-11-06 23:00:00 0.6 37 Noroeste 60 Noroeste 0 -- -- 91
2017-11-06 22:00:00 1.4 38 Noroeste 62 Noroeste 0 -- -- 89
2017-11-06 21:00:00 1.1 44 Noroeste 66 Noroeste 0 -- -- 92
2017-11-06 20:00:00 1.5 38 Noroeste 63 Noroeste 0 -- -- 94
2017-11-06 19:00:00 2.4 43 Noroeste 65 Noroeste 0 -- -- 80
2017-11-06 18:00:00 2.6 40 Noroeste 60 Noroeste 0 -- -- 84
2017-11-06 17:00:00 3.6 37 Noroeste 61 Noroeste 0 -- -- 76
2017-11-06 16:00:00 4.7 34 Noroeste 53 Noroeste 0 -- -- 82
2017-11-06 15:00:00 3.8 31 Noroeste 46 Noroeste 0 -- -- 87
2017-11-06 14:00:00 3.3 28 Noroeste 61 Noroeste 0 -- -- 91
2017-11-06 13:00:00 3 34 Noroeste 50 Noroeste 0 -- -- 93
2017-11-06 12:00:00 3 28 Noroeste 49 Noroeste 0 -- -- 91
2017-11-06 11:00:00 2.4 24 Noroeste 42 Noroeste 0.2 -- -- 94
2017-11-06 10:00:00 1.6 19 Noroeste 37 Noroeste 0.2 -- -- 96
2017-11-06 09:00:00 1.5 24 Noroeste 44 Noroeste 0 -- -- 93
2017-11-06 08:00:00 1.7 28 Norte 51 Noroeste 0 -- -- 89
2017-11-06 07:00:00 1.9 35 Noroeste 51 Noroeste 0 -- -- 91
2017-11-06 06:00:00 1.8 36 Noroeste 56 Noroeste 0 -- -- 94
2017-11-06 05:00:00 1.9 41 Noroeste 57 Noroeste 0 -- -- 94
2017-11-06 04:00:00 2.2 29 Noroeste 46 Noroeste 0.6 -- -- 97
2017-11-06 03:00:00 2.3 30 Noroeste 50 Norte 0 -- -- 95
2017-11-06 02:00:00 2.6 31 Noroeste 45 Noroeste 0.2 -- -- 96
2017-11-06 01:00:00 3.1 22 Noroeste 32 Noroeste 0 -- -- 92
2017-11-06 00:00:00 3.3 20 Noroeste 41 Norte 0 -- -- 88
2017-11-05 23:00:00 3.8 24 Noroeste 39 Norte 0 -- -- 81
2017-11-05 22:00:00 4.1 24 Norte 35 Noroeste 0 -- -- 81
2017-11-05 21:00:00 4.4 18 Norte 26 Norte 0 -- -- 83
2017-11-05 20:00:00 4.3 15 Norte 31 Norte 0 -- -- 84
2017-11-05 19:00:00 4.8 22 Norte 33 Norte 0 -- -- 83
2017-11-05 18:00:00 5.3 21 Norte 31 Norte 0 -- -- 81
2017-11-05 17:00:00 6.2 24 Norte 34 Norte 0 -- -- 72
2017-11-05 16:00:00 7 22 Norte 47 Norte 0 -- -- 66
2017-11-05 15:00:00 8.2 34 Norte 46 Noroeste 0 -- -- 60
2017-11-05 14:00:00 7.6 26 Norte 43 Norte 0 -- -- 66
2017-11-05 13:00:00 6.9 27 Norte 40 Norte 0 -- -- 69
2017-11-05 12:00:00 6.9 26 Norte 37 Norte 0 -- -- 71
2017-11-05 11:00:00 6 26 Norte 43 Noroeste 0 -- -- 74
2017-11-05 10:00:00 6.1 29 Noroeste 55 Norte 0 -- -- 78
2017-11-05 09:00:00 4.8 38 Norte 57 Noroeste 0 -- -- 86
2017-11-05 08:00:00 4.6 37 Noroeste 57 Norte 0 -- -- 88
2017-11-05 07:00:00 4.8 41 Norte 67 Noroeste 0.2 -- -- 89
2017-11-05 06:00:00 5.9 38 Noroeste 54 Noroeste 0 -- -- 87
2017-11-05 05:00:00 6.4 26 Noroeste 49 Noroeste 0 -- -- 93
2017-11-05 04:00:00 6.5 27 Noroeste 39 Noroeste 0 -- -- 96
2017-11-05 03:00:00 6.8 21 Noroeste 37 Noroeste 0 -- -- 96
2017-11-05 02:00:00 6.7 17 Noroeste 36 Noroeste 0 -- -- 97
2017-11-05 01:00:00 6.8 20 Noroeste 32 Noroeste 0 -- -- 97
2017-11-05 00:00:00 7.3 21 Norte 35 Noroeste 0.8 -- -- 97
2017-11-04 23:00:00 7.4 15 Noroeste 21 Noroeste 0.8 -- -- 96
2017-11-04 22:00:00 7.9 15 Noroeste 31 Oeste 0 -- -- 93
2017-11-04 21:00:00 7.5 18 Oeste 33 Oeste 0 -- -- 93
2017-11-04 20:00:00 7.3 21 Oeste 31 Oeste 0 -- -- 93
2017-11-04 19:00:00 7.3 18 Sudoeste 28 Sudoeste 0 -- -- 92
2017-11-04 18:00:00 7.6 20 Oeste 30 Oeste 0 -- -- 90
2017-11-04 17:00:00 7.8 13 Oeste 29 Oeste 1.2 -- -- 89
2017-11-04 16:00:00 8.6 16 Sudoeste 32 Sudoeste 0.2 -- -- 85
2017-11-04 15:00:00 10.3 10 Oeste 32 Sudoeste 0 -- -- 80
2017-11-04 14:00:00 12.8 16 Sudoeste 27 Sudoeste 0 -- -- 65
2017-11-04 13:00:00 12.4 11 Sudoeste 30 Sudoeste 0 -- -- 66
2017-11-04 12:00:00 12.3 14 Sudoeste 27 Sudoeste 0 -- -- 68
2017-11-04 11:00:00 12 17 Sudoeste 27 Sudoeste 0 -- -- 69
2017-11-04 10:00:00 11.9 14 Sudoeste 22 Sudoeste 0 -- -- 74
2017-11-04 09:00:00 10.5 9 Sudoeste 16 Sudoeste 0 -- -- 82
2017-11-04 08:00:00 7.7 7 Sudoeste 17 Sudoeste 0 -- -- 91
2017-11-04 07:00:00 7.9 6 Sudoeste 18 Sur 0 -- -- 90
2017-11-04 06:00:00 8.5 6 Sudoeste 13 Sudoeste 0 -- -- 89
2017-11-04 05:00:00 9.2 4 Oeste 14 Sudoeste 0 -- -- 86
2017-11-04 04:00:00 9.6 7 Sudoeste 15 Sudoeste 0 -- -- 82
2017-11-04 03:00:00 8.7 8 Sudoeste 15 Sudoeste 0 -- -- 81
2017-11-04 02:00:00 8.5 12 Sudoeste 17 Sudoeste 0 -- -- 83
2017-11-04 01:00:00 9 13 Sudoeste 16 Sudoeste 0 -- -- 80
2017-11-04 00:00:00 9.7 13 Sudoeste 17 Sudoeste 0 -- -- 76
2017-11-03 23:00:00 10 5 Sudoeste 8 Sudoeste 0 -- -- 75
2017-11-03 22:00:00 9.9 3 Sudeste 16 Sudoeste 0 -- -- 74
2017-11-03 21:00:00 10.4 3 Sur 10 Sudoeste 0 -- -- 72
2017-11-03 20:00:00 11.1 3 Sur 13 Sudeste 0 -- -- 70
2017-11-03 19:00:00 11.2 3 Este 13 Sudeste 0 -- -- 70
2017-11-03 18:00:00 11.6 5 Sudeste 11 Sudeste 0 -- -- 70
2017-11-03 17:00:00 14.1 5 Nordeste 15 Noroeste 0 -- -- 64
2017-11-03 16:00:00 15.7 10 Norte 30 Sudoeste 0 -- -- 56
2017-11-03 15:00:00 16.7 5 Oeste 28 Sudoeste 0 -- -- 49
2017-11-03 14:00:00 16.9 15 Sudoeste 31 Oeste 0 -- -- 51
2017-11-03 13:00:00 15.9 13 Sudoeste 34 Sudoeste 0 -- -- 53
2017-11-03 12:00:00 15.7 16 Sudoeste 37 Sudoeste 0 -- -- 52
2017-11-03 11:00:00 15.4 19 Oeste 38 Oeste 0 -- -- 53
2017-11-03 10:00:00 15.5 14 Sudoeste 26 Sudoeste 0 -- -- 57
2017-11-03 09:00:00 11.5 9 Sudoeste 23 Sudoeste 0 -- -- 71
2017-11-03 08:00:00 9.7 16 Sudoeste 32 Sudoeste 0 -- -- 81
2017-11-03 07:00:00 9 17 Sudoeste 23 Sudoeste 0 -- -- 83
2017-11-03 06:00:00 9.4 14 Sudoeste 20 Sur 0 -- -- 80
2017-11-03 05:00:00 9 15 Sudoeste 23 Sudoeste 0 -- -- 88
2017-11-03 04:00:00 9.3 14 Sudoeste 17 Sudoeste 0 -- -- 86
2017-11-03 03:00:00 10 12 Sudoeste 20 Sudoeste 0 -- -- 82
2017-11-03 02:00:00 10.4 12 Sudoeste 19 Sur 0 -- -- 81
2017-11-03 01:00:00 9.7 5 Sudoeste 12 Sudoeste 0 -- -- 83
2017-11-03 00:00:00 9.4 5 Sudoeste 17 Sudoeste 0 -- -- 84
2017-11-02 23:00:00 9.3 14 Sudoeste 19 Sudoeste 0 -- -- 84
2017-11-02 22:00:00 9.8 14 Sudoeste 22 Sudoeste 0 -- -- 79
2017-11-02 21:00:00 10.5 18 Sur 22 Sur 0 -- -- 77
2017-11-02 20:00:00 9.5 2 Sur 10 Sudoeste 0 -- -- 81
2017-11-02 19:00:00 10.5 3 Sur 8 Sur 0 -- -- 76
2017-11-02 18:00:00 12.1 3 Sur 17 Este 0 -- -- 71
2017-11-02 17:00:00 14.4 9 Este 17 Nordeste 0 -- -- 63
2017-11-02 16:00:00 15.3 11 Nordeste 19 Este 0 -- -- 63
2017-11-02 15:00:00 18 9 Sur 18 Sudeste 0 -- -- 48
2017-11-02 14:00:00 17.3 8 Sur 19 Sur 0 -- -- 50
2017-11-02 13:00:00 16.7 11 Sur 22 Sur 0 -- -- 58
2017-11-02 12:00:00 15.8 14 Sur 24 Sudoeste 0 -- -- 64
2017-11-02 11:00:00 13.5 21 Sudoeste 28 Sudoeste 0 -- -- 74
2017-11-02 10:00:00 11.8 9 Sur 19 Sur 0 -- -- 82
2017-11-02 09:00:00 9 15 Sudoeste 30 Sudoeste 0 -- -- 92
2017-11-02 08:00:00 8.2 25 Sudoeste 32 Sudoeste 0 -- -- 93
2017-11-02 07:00:00 8 26 Sudoeste 36 Sudoeste 0 -- -- 93
2017-11-02 06:00:00 7.7 26 Sudoeste 33 Sudoeste 0 -- -- 93
2017-11-02 05:00:00 8.2 27 Sudoeste 38 Sudoeste 0 -- -- 94
2017-11-02 04:00:00 8.8 31 Sudoeste 39 Sudoeste 0 -- -- 92
2017-11-02 03:00:00 8.2 23 Sudoeste 35 Sudoeste 0 -- -- 94
2017-11-02 02:00:00 8.7 28 Sudoeste 40 Sudoeste 0 -- -- 93
2017-11-02 01:00:00 9.3 34 Sudoeste 43 Sur 0 -- -- 92
2017-11-02 00:00:00 9.3 27 Sudoeste 36 Sudoeste 0 -- -- 92
2017-11-01 23:00:00 8.6 17 Sudoeste 22 Sudoeste 0 -- -- 89
2017-11-01 22:00:00 8.9 15 Sudoeste 21 Sudoeste 0 -- -- 82
2017-11-01 21:00:00 8.5 12 Sudoeste 15 Sudoeste 0 -- -- 81
2017-11-01 20:00:00 9.3 10 Sur 13 Sur 0 -- -- 76
2017-11-01 19:00:00 9.2 6 Sudeste 12 Sudeste 0 -- -- 78
2017-11-01 18:00:00 11.5 5 Sudeste 13 Sudeste 0 -- -- 72
2017-11-01 17:00:00 13.7 9 Sudeste 17 Este 0 -- -- 66
2017-11-01 16:00:00 16.6 10 Sudoeste 17 Sur 0 -- -- 48
2017-11-01 15:00:00 17.7 10 Sudoeste 21 Sudoeste 0 -- -- 46
2017-11-01 14:00:00 17.4 6 Sur 17 Sudoeste 0 -- -- 47
2017-11-01 13:00:00 15.1 10 Oeste 18 Sudoeste 0 -- -- 55
2017-11-01 12:00:00 15.3 13 Sudoeste 23 Sudoeste 0 -- -- 64
2017-11-01 11:00:00 13.7 17 Sudoeste 27 Sudoeste 0 -- -- 70
2017-11-01 10:00:00 11.6 21 Sudoeste 30 Sudoeste 0 -- -- 81
2017-11-01 09:00:00 8.9 26 Sudoeste 33 Sudoeste 0 -- -- 92
2017-11-01 08:00:00 7.2 28 Sudoeste 34 Sudoeste 0 -- -- 94
2017-11-01 07:00:00 7.4 21 Sudoeste 28 Sudoeste 0 -- -- 94
2017-11-01 06:00:00 7.1 22 Sudoeste 32 Sudoeste 0 -- -- 94
2017-11-01 05:00:00 6.9 26 Sudoeste 32 Sudoeste 0 -- -- 94
2017-11-01 04:00:00 7.1 27 Sudoeste 32 Sudoeste 0 -- -- 95
2017-11-01 03:00:00 6.8 26 Sudoeste 30 Sudoeste 0 -- -- 95
2017-11-01 02:00:00 6.9 21 Sudoeste 31 Sudoeste 0 -- -- 94
2017-11-01 01:00:00 7.6 26 Sudoeste 32 Sur 0 -- -- 93
2017-11-01 00:00:00 7.6 22 Sudoeste 28 Sudoeste 0 -- -- 94
2017-10-31 23:00:00 7.2 23 Sudoeste 26 Sudoeste 0 -- -- 92
2017-10-31 22:00:00 7.8 19 Sudoeste 24 Sudoeste 0 -- -- 88
2017-10-31 21:00:00 8.3 15 Sudoeste 19 Sudoeste 0 -- -- 83
2017-10-31 20:00:00 7.6 0 Calma 5 Sur 0 -- -- 77
2017-10-31 19:00:00 8.2 3 Sur 12 Sudeste 0 -- -- 71
2017-10-31 18:00:00 10 9 Sudeste 18 Sudeste 0 -- -- 65
2017-10-31 17:00:00 12.3 11 Este 19 Sudeste 0 -- -- 60
2017-10-31 16:00:00 13.7 11 Sudeste 22 Sudeste 0 -- -- 57
2017-10-31 15:00:00 16 14 Sur 23 Sudeste 0 -- -- 53
2017-10-31 14:00:00 16 12 Sudoeste 18 Sur 0 -- -- 53
2017-10-31 13:00:00 14.7 9 Sudoeste 20 Sudoeste 0 -- -- 61
2017-10-31 12:00:00 14.7 13 Sudoeste 24 Sur 0 -- -- 62
2017-10-31 11:00:00 13.6 16 Sudoeste 24 Sur 0 -- -- 67
2017-10-31 10:00:00 11.7 21 Sudoeste 31 Sudoeste 0 -- -- 77
2017-10-31 09:00:00 9.3 24 Sudoeste 32 Sudoeste 0 -- -- 88
2017-10-31 08:00:00 6.3 24 Sudoeste 30 Sudoeste 0 -- -- 96
2017-10-31 07:00:00 5.4 13 Sudoeste 22 Sudoeste 0 -- -- 96
2017-10-31 06:00:00 3.5 6 Sudeste 14 Sudeste 0 -- -- 96
2017-10-31 05:00:00 3.3 3 Nordeste 14 Este 0 -- -- 96
2017-10-31 04:00:00 1.9 2 Sur 5 Sur 0 -- -- 95
2017-10-31 03:00:00 1.8 0 Calma 9 Oeste -- -- -- 93
2017-10-31 02:00:00 2.1 5 Oeste 10 Oeste 0 -- -- 94
2017-10-31 01:00:00 2.8 2 Sudoeste 6 Noroeste 0 -- -- 94
2017-10-31 00:00:00 3 4 Oeste 9 Oeste 0 -- -- 92
2017-10-30 23:00:00 3.5 5 Oeste 10 Noroeste 0 -- -- 93
2017-10-30 22:00:00 4.4 8 Noroeste 22 Noroeste 0 -- -- 93
2017-10-30 21:00:00 5.3 14 Noroeste 23 Noroeste 0 -- -- 92
2017-10-30 20:00:00 6.5 16 Norte 31 Noroeste 0 -- -- 87
2017-10-30 19:00:00 7.4 7 Noroeste 23 Noroeste 0 -- -- 87
2017-10-30 18:00:00 8.7 14 Norte 28 Norte 0 -- -- 83
2017-10-30 17:00:00 10.3 19 Norte 31 Norte 0 -- -- 75
2017-10-30 16:00:00 10.8 23 Norte 34 Norte 0 -- -- 74
2017-10-30 15:00:00 12.1 24 Norte 39 Noroeste 0 -- -- 69
2017-10-30 14:00:00 12.3 25 Norte 39 Norte 0 -- -- 66
2017-10-30 13:00:00 12 27 Norte 49 Norte 0 -- -- 70
2017-10-30 12:00:00 10.9 32 Norte 47 Norte 0 -- -- 74
2017-10-30 11:00:00 10.4 32 Noroeste 46 Noroeste 0 -- -- 77
2017-10-30 10:00:00 8.7 31 Noroeste 46 Noroeste 0 -- -- 85
2017-10-30 09:00:00 7.4 22 Noroeste 38 Noroeste 0 -- -- 88
2017-10-30 08:00:00 6.8 21 Noroeste 40 Noroeste 0 -- -- 89
2017-10-30 07:00:00 6.7 21 Noroeste 44 Norte 0 -- -- 89
2017-10-30 06:00:00 7.1 31 Noroeste 44 Noroeste 0 -- -- 88
2017-10-30 05:00:00 7.4 27 Noroeste 45 Noroeste 0 -- -- 88
2017-10-30 04:00:00 7.5 30 Noroeste 45 Noroeste 0 -- -- 89
2017-10-30 03:00:00 7.7 25 Noroeste 45 Noroeste 0 -- -- 88
2017-10-30 02:00:00 7.6 26 Noroeste 40 Noroeste 0 -- -- 88
2017-10-30 01:00:00 7.7 27 Noroeste 45 Noroeste 0 -- -- 87
2017-10-30 00:00:00 7.7 30 Noroeste 44 Noroeste 0 -- -- 88
2017-10-29 23:00:00 7.6 22 Noroeste 38 Noroeste 0 -- -- 89
2017-10-29 22:00:00 7.3 28 Noroeste 46 Noroeste 0 -- -- 91
2017-10-29 21:00:00 7 25 Noroeste 41 Noroeste 0 -- -- 91
2017-10-29 20:00:00 7 23 Noroeste 36 Noroeste 0 -- -- 91
2017-10-29 19:00:00 7.6 15 Noroeste 29 Noroeste 0 -- -- 80
2017-10-29 18:00:00 9 16 Noroeste 28 Noroeste 0 -- -- 72
2017-10-29 17:00:00 10.8 17 Noroeste 27 Noroeste 0 -- -- 61
2017-10-29 16:00:00 12.8 15 Noroeste 23 Norte 0 -- -- 52
2017-10-29 15:00:00 13.8 13 Norte 21 Norte 0 -- -- 43
2017-10-29 14:00:00 14.1 12 Norte 23 Norte 0 -- -- 42
2017-10-29 13:00:00 13.6 14 Noroeste 21 Noroeste 0 -- -- 43
2017-10-29 12:00:00 12.3 14 Noroeste 20 Norte 0 -- -- 44
2017-10-29 11:00:00 10.9 14 Noroeste 21 Norte 0 -- -- 47
2017-10-29 10:00:00 9.4 15 Noroeste 24 Noroeste 0 -- -- 49
2017-10-29 09:00:00 8.1 14 Noroeste 22 Noroeste 0 -- -- 52
2017-10-29 08:00:00 4.8 5 Noroeste 10 Oeste 0 -- -- 70
2017-10-29 07:00:00 3.7 7 Noroeste 12 Oeste 0 -- -- 84
2017-10-29 06:00:00 4.1 9 Noroeste 13 Noroeste 0 -- -- 88
2017-10-29 05:00:00 4.1 8 Oeste 12 Oeste 0 -- -- 82
2017-10-29 04:00:00 4.2 6 Oeste 11 Noroeste 0 -- -- 84
2017-10-29 03:00:00 4.2 4 Noroeste 9 Noroeste 0 -- -- 80
2017-10-29 02:00:00 4.7 4 Noroeste 15 Oeste 0 -- -- 74
2017-10-29 01:00:00 6 9 Noroeste 18 Oeste 0 -- -- 69
2017-10-29 00:00:00 5.4 5 Noroeste 13 Noroeste 0 -- -- 77
2017-10-28 23:00:00 6 5 Noroeste 12 Noroeste 0 -- -- 84
2017-10-28 22:00:00 6.8 4 Oeste 15 Noroeste 0 -- -- 83
2017-10-28 21:00:00 7.9 10 Noroeste 23 Noroeste 0 -- -- 79
2017-10-28 20:00:00 8.4 12 Noroeste 21 Noroeste 0 -- -- 76
2017-10-28 19:00:00 9.6 11 Noroeste 27 Norte 0 -- -- 72
2017-10-28 18:00:00 12.2 18 Norte 26 Norte 0 -- -- 64
2017-10-28 17:00:00 13.7 18 Norte 26 Norte 0 -- -- 60
2017-10-28 16:00:00 14.3 18 Noroeste 28 Noroeste 0 -- -- 59
2017-10-28 15:00:00 14 17 Norte 30 Noroeste 0 -- -- 61
2017-10-28 14:00:00 13.3 18 Norte 31 Noroeste 0 -- -- 64
2017-10-28 13:00:00 12.5 20 Noroeste 30 Norte 0 -- -- 70
2017-10-28 12:00:00 11.1 17 Noroeste 31 Noroeste 0 -- -- 74
2017-10-28 11:00:00 10.8 24 Noroeste 37 Norte 0 -- -- 78
2017-10-28 10:00:00 8.7 20 Noroeste 41 Norte 0 -- -- 88
2017-10-28 09:00:00 8 27 Noroeste 41 Noroeste 0 -- -- 90
2017-10-28 08:00:00 8.1 27 Noroeste 46 Noroeste 0 -- -- 89
2017-10-28 07:00:00 8.4 25 Norte 44 Noroeste 0 -- -- 88
2017-10-28 06:00:00 8.5 30 Noroeste 54 Noroeste 0 -- -- 87
2017-10-28 05:00:00 8.7 35 Noroeste 58 Noroeste 0 -- -- 88
2017-10-28 04:00:00 9.2 31 Noroeste 47 Noroeste 0 -- -- 87
2017-10-28 03:00:00 9.3 25 Norte 55 Noroeste 0 -- -- 87
2017-10-28 02:00:00 9.3 26 Noroeste 52 Noroeste 0 -- -- 86
2017-10-28 01:00:00 8.9 31 Noroeste 49 Noroeste 0 -- -- 86
2017-10-28 00:00:00 9 34 Noroeste 68 Noroeste 0 -- -- 87
2017-10-27 23:00:00 9.6 48 Noroeste 65 Noroeste 0 -- -- 84
2017-10-27 22:00:00 9.5 35 Noroeste 49 Noroeste 0 -- -- 85
2017-10-27 21:00:00 10.7 35 Noroeste 49 Noroeste 0 -- -- 79
2017-10-27 20:00:00 10.9 37 Noroeste 52 Norte 0 -- -- 83
2017-10-27 19:00:00 12.3 28 Norte 36 Noroeste 0 -- -- 77
2017-10-27 18:00:00 15 31 Norte 41 Norte 0 -- -- 63
2017-10-27 17:00:00 17.6 27 Norte 41 Noroeste 0 -- -- 53
2017-10-27 16:00:00 19.1 24 Noroeste 39 Noroeste 0 -- -- 39
2017-10-27 15:00:00 19.1 26 Noroeste 35 Noroeste 0 -- -- 41
2017-10-27 14:00:00 18.8 22 Noroeste 31 Oeste 0 -- -- 45
2017-10-27 13:00:00 17.5 22 Noroeste 31 Noroeste 0 -- -- 46
2017-10-27 12:00:00 16.6 22 Noroeste 32 Noroeste 0 -- -- 47
2017-10-27 11:00:00 16.6 10 Noroeste 17 Noroeste 0 -- -- 44
2017-10-27 10:00:00 14.9 6 Noroeste 9 Noroeste 0 -- -- 48
2017-10-27 09:00:00 12.1 6 Noroeste 14 Oeste 0 -- -- 53
2017-10-27 08:00:00 11.8 11 Noroeste 14 Noroeste 0 -- -- 54
2017-10-27 07:00:00 12.1 3 Noroeste 8 Noroeste 0 -- -- 53
2017-10-27 06:00:00 12.4 3 Noroeste 10 Noroeste 0 -- -- 53
2017-10-27 05:00:00 12.9 2 Noroeste 9 Oeste 0 -- -- 49
2017-10-27 04:00:00 12.9 3 Noroeste 9 Noroeste 0 -- -- 45
2017-10-27 03:00:00 13.5 5 Noroeste 8 Noroeste 0 -- -- 46
2017-10-27 02:00:00 13.9 0 Calma 6 Oeste 0 -- -- 47
2017-10-27 01:00:00 13.6 3 Oeste 7 Oeste 0 -- -- 50
2017-10-27 00:00:00 13.5 3 Oeste 13 Sudoeste 0 -- -- 51
2017-10-26 23:00:00 14.1 3 Sur 8 Sur 0 -- -- 51
2017-10-26 22:00:00 14 2 Sudoeste 8 Sudoeste 0 -- -- 52
2017-10-26 21:00:00 14.2 3 Sur 6 Sudeste 0 -- -- 55
2017-10-26 20:00:00 15.9 4 Sur 9 Este 0 -- -- 54
2017-10-26 19:00:00 17.5 7 Sudeste 14 Nordeste 0 -- -- 51
2017-10-26 18:00:00 21.7 6 Nordeste 12 Nordeste 0 -- -- 36
2017-10-26 17:00:00 22.9 8 Noroeste 14 Noroeste 0 -- -- 26
2017-10-26 16:00:00 23.4 8 Noroeste 18 Noroeste 0 -- -- 27
2017-10-26 15:00:00 23.4 9 Noroeste 18 Noroeste 0 -- -- 27
2017-10-26 14:00:00 23 12 Noroeste 16 Noroeste 0 -- -- 29
2017-10-26 13:00:00 22.1 12 Noroeste 19 Noroeste 0 -- -- 30
2017-10-26 12:00:00 21.4 11 Norte 16 Norte 0 -- -- 31
2017-10-26 11:00:00 20.9 3 Norte 16 Sudoeste 0 -- -- 34
2017-10-26 10:00:00 18.1 12 Sudoeste 18 Sudoeste 0 -- -- 44
2017-10-26 09:00:00 14.5 0 Calma 8 Sudoeste 0 -- -- 48
2017-10-26 08:00:00 13.9 2 Sur 14 Sudoeste 0 -- -- 50
2017-10-26 07:00:00 13.4 5 Sudoeste 14 Oeste 0 -- -- 52
2017-10-26 06:00:00 13.5 0 Calma 9 Sur 0 -- -- 52
2017-10-26 05:00:00 13.6 0 Calma 17 Oeste 0 -- -- 50
2017-10-26 04:00:00 14.4 11 Sudoeste 20 Oeste 0 -- -- 46
2017-10-26 03:00:00 14.6 3 Oeste 9 Sur 0 -- -- 46
2017-10-26 02:00:00 14.2 2 Sudeste 9 Oeste 0 -- -- 48
2017-10-26 01:00:00 14.7 2 Noroeste 19 Sudoeste 0 -- -- 47
2017-10-26 00:00:00 15.3 8 Sudoeste 23 Sudoeste 0 -- -- 45
2017-10-25 23:00:00 14.5 15 Sudoeste 29 Sudoeste 0 -- -- 49
2017-10-25 22:00:00 16.4 22 Sur 27 Sudoeste 0 -- -- 46
2017-10-25 21:00:00 15.6 3 Sudeste 6 Sudeste 0 -- -- 48
2017-10-25 20:00:00 15.8 3 Sur 8 Sur 0 -- -- 46
2017-10-25 19:00:00 17.3 4 Sur 14 Este 0 -- -- 44
2017-10-25 18:00:00 21.1 9 Este 18 Este 0 -- -- 36
2017-10-25 17:00:00 22.9 8 Nordeste 22 Sur 0 -- -- 33
2017-10-25 16:00:00 25.2 6 Sudeste 22 Sur 0 -- -- 26
2017-10-25 15:00:00 25 10 Sudeste 20 Sudoeste 0 -- -- 28
2017-10-25 14:00:00 24.6 6 Sudeste 20 Sudoeste 0 -- -- 31
2017-10-25 13:00:00 23.8 10 Sudoeste 19 Sudoeste 0 -- -- 32
2017-10-25 12:00:00 23 10 Sudoeste 18 Sudoeste 0 -- -- 33
2017-10-25 11:00:00 21.4 8 Sudoeste 13 Sudoeste 0 -- -- 35
2017-10-25 10:00:00 18.2 3 Sudeste 8 Sudeste 0 -- -- 42
2017-10-25 09:00:00 13.6 2 Sur 10 Sudoeste 0 -- -- 49
2017-10-25 08:00:00 12.1 5 Sudoeste 9 Oeste 0 -- -- 53
2017-10-25 07:00:00 12.4 3 Oeste 8 Sudoeste 0 -- -- 50
2017-10-25 06:00:00 12.9 2 Oeste 6 Oeste 0 -- -- 51
2017-10-25 05:00:00 12.3 3 Oeste 7 Sudoeste 0 -- -- 53
2017-10-25 04:00:00 12.6 2 Noroeste 11 Oeste 0 -- -- 51
2017-10-25 03:00:00 12.8 10 Oeste 23 Sudoeste 0 -- -- 51
2017-10-25 02:00:00 13 20 Sudoeste 25 Sudoeste 0 -- -- 50
2017-10-25 01:00:00 13.2 4 Sudoeste 21 Sudoeste 0 -- -- 48
2017-10-25 00:00:00 12.7 3 Oeste 16 Sudoeste 0 -- -- 50